Tiempo atmosférico en la estación meteorológica de Bello, Teruel (1006 m.)



Fecha
DESCASC
Temp. máxima en grados centígrados (hora)
DESCASC
Temp. mínima en grados centígrados (hora)
DESCASC
Temp. media en grados centígrados
DESCASC
Racha de viento máxima en m/sg (hora)
DESCASC
Velocidad máxima media en intervalos de 10 minutos(hora)
DESCASC
Precipitaciones diarias en mm
DESCASC
Precipitaciones de 00:00 a 06:00 en mm
DESCASC
Precipitaciones de 06:00 a 12:00 en mm
DESCASC
Precipitaciones de 12:00 a 18:00 en mm
DESCASC
Precipitaciones de 18:00 a 24:00 en mm
DESCASC
23-05-2020 24.8 (14:50) 11.3 (07:20) 18 11.67 (17:30) 7.5 (15:40) 0 0 0 0 0
22-05-2020 27.9 (16:10) 7.8 (06:40) 17.8 6.11 (15:40) 3.33 (18:00) 0 0 0 0 0
21-05-2020 27.7 (17:00) 6.6 (00:00) 17.2 6.67 (17:10) 4.17 (17:10) 0 0 0 0 0
20-05-2020 25 (18:30) 5.3 (00:00) 15.2 6.67 (14:00) 3.89 (14:00) 0 0 0 0 0
19-05-2020 23.4 (17:40) 3.6 (06:50) 13.5 6.94 (14:40) 2.78 (17:50) 0 0 0 0 0
18-05-2020 21.1 (18:30) 1.7 (00:00) 11.4 7.78 (15:40) 4.72 (15:40) 0 0 0 0 0
17-05-2020 18.1 (17:30) 4.1 (00:00) 11.1 7.22 (01:30) 3.89 (01:40) 0 0 0 0 0
16-05-2020 12.1 (17:20) 6.4 (00:00) 9.3 8.33 (00:20) 5 (00:30) 0.8 0.8 0 0 0
15-05-2020 13 (15:20) 7.7 (05:40) 10.3 9.17 (16:30) 5.83 (19:10) 11.6 6.2 0 1.6 3.8
14-05-2020 10.3 (15:50) 4.4 (00:00) 7.4 11.11 (16:00) 7.22 (16:10) 16.2 0 2 11.6 2.6
13-05-2020 16.8 (19:10) 5.7 (00:00) 11.2 9.17 (10:10) 6.11 (10:10) 0 0 0 0 0
12-05-2020 13.8 (13:00) 3.2 (05:00) 8.5 10.56 (22:20) 6.67 (22:30) 19 0 0 2 17
11-05-2020 17.9 (16:20) 6.7 (00:00) 12.3 14.17 (11:30) 8.89 (11:50) 0 0 0 0 0
10-05-2020 15.4 (18:30) 7.1 (00:00) 11.2 15 (16:50) 8.61 (17:10) 0.7 0 0 0.7 0
09-05-2020 23.6 (17:10) 11.3 (04:30) 17.5 9.72 (21:40) 7.5 (06:10) 0.2 0 0 0.2 0
08-05-2020 24.9 (17:20) 5.6 (00:00) 15.2 13.06 (20:50) 8.89 (21:00) 0 0 0 0 0
07-05-2020 23.5 (15:20) 7.8 (00:00) 15.7 11.11 (14:10) 8.06 (12:50) 0 0 0 0 0
06-05-2020 24 (16:50) 2.3 (00:00) 13.1 6.39 (16:50) 3.89 (20:20) 0 0 0 0 0
05-05-2020 23.2 (15:40) 7.9 (00:00) 15.6 8.89 (18:30) 6.67 (00:10) 0 0 0 0 0
04-05-2020 27.5 (14:50) 7.8 (00:00) 17.7 15 (15:40) 10.56 (15:00) 0 0 0 0 0
03-05-2020 25.9 (17:30) 6.2 (07:30) 16 5.56 (14:30) 3.33 (15:50) 0 0 0 0 0
02-05-2020 23.6 (16:30) 9 (07:20) 16.3 11.11 (17:40) 6.94 (15:50) 0 0 0 0 0
01-05-2020 18.8 (19:00) 9.1 (00:00) 13.9 16.39 (14:30) 9.72 (11:20) 0 0 0 0 0
30-04-2020 16.9 (18:00) 9.5 (07:50) 13.2 15.83 (12:30) 7.78 (11:20) 0 0 0 0 0
29-04-2020 17.1 (16:30) 2 (00:00) 9.6 12.5 (18:00) 7.5 (15:20) 0 0 0 0 0
28-04-2020 15.1 (18:00) 4.8 (05:10) 10 11.67 (17:40) 6.67 (17:40) 0.6 0 0.6 0 0

Gráficas

Temp. máximas Temp. mínimas Temp. medias Precipitaciones Rachas de viento máximas Velocidades máximas media en intervalos de 10 minutos

Datos horarios

Fecha y hora oficial Temperatura (ºC) Velocidad del viento (km/h) Dirección del viento Racha (km/h) Dirección de racha Precipitación (mm) Presión (hPa) Tendencia (hPa) Humedad (%)
2020-05-27 23:00:00 -- -- -- -- -- -- -- -- --
2020-05-27 22:00:00 15.7 12 Sudeste 19 Sudeste 0 -- -- 76
2020-05-27 21:00:00 19.1 10 Sudeste 27 Este 0 -- -- 67
2020-05-27 20:00:00 21.9 17 Sudeste 28 Este 0 -- -- 54
2020-05-27 19:00:00 23.4 18 Sudeste 33 Sudeste 0 -- -- 52
2020-05-27 18:00:00 23.8 17 Este 27 Este 0 -- -- 48
2020-05-27 17:00:00 23.9 16 Este 29 Sudeste 0 -- -- 47
2020-05-27 16:00:00 24.5 14 Sudeste 26 Sudeste 0 -- -- 47
2020-05-27 15:00:00 24.1 15 Sudeste 26 Sudeste 0 -- -- 46
2020-05-27 14:00:00 22.9 14 Este 23 Este 0 -- -- 47
2020-05-27 13:00:00 21.9 10 Sur 21 Sudeste 0 -- -- 56
2020-05-27 12:00:00 20.7 12 Sur 20 Sur 0 -- -- 57
2020-05-27 11:00:00 19.2 12 Sudeste 18 Sudeste 0 -- -- 64
2020-05-27 10:00:00 17.5 8 Este 11 Sudeste 0 -- -- 75
2020-05-27 09:00:00 15 4 Sudeste 8 Sudeste 0 -- -- 87
2020-05-27 08:00:00 10.6 0 Calma 6 Sudoeste 0 -- -- 98
2020-05-27 07:00:00 8.1 4 Oeste 9 Oeste 0 -- -- 96
2020-05-27 06:00:00 8.7 2 Oeste 8 Oeste 0 -- -- 95
2020-05-27 05:00:00 9.5 0 Calma 8 Sudoeste 0 -- -- 94
2020-05-27 04:00:00 11.1 2 Sur 5 Sudeste 0 -- -- 92
2020-05-27 03:00:00 12.8 4 Este 6 Sudeste 0 -- -- 94
2020-05-27 02:00:00 13.8 7 Sur 8 Sur 0 -- -- 92
2020-05-27 01:00:00 13.3 3 Sudeste 8 Sudeste 0 -- -- 93
2020-05-27 00:00:00 12.7 4 Sudeste 6 Este 0 -- -- 91
2020-05-26 23:00:00 13.3 3 Sur 6 Sudoeste 0 -- -- 91
2020-05-26 22:00:00 15.3 3 Sudeste 9 Este 0 -- -- 87
2020-05-26 21:00:00 17.3 8 Este 17 Nordeste 0 -- -- 85
2020-05-26 20:00:00 18.5 11 Nordeste 17 Este 0 -- -- 80
2020-05-26 19:00:00 18.4 8 Nordeste 14 Este 0.2 -- -- 89
2020-05-26 18:00:00 17.1 9 Este 27 Este 1.4 -- -- 91
2020-05-26 17:00:00 17.3 10 Este 29 Este 1 -- -- 91
2020-05-26 16:00:00 18 19 Este 31 Este 0 -- -- 81
2020-05-26 15:00:00 21.1 10 Nordeste 24 Nordeste 0 -- -- 67
2020-05-26 14:00:00 22.7 9 Este 24 Sudeste 0 -- -- 61
2020-05-26 13:00:00 21.6 8 Este 21 Sudeste 0 -- -- 58
2020-05-26 12:00:00 20 11 Sudeste 20 Este 0 -- -- 62
2020-05-26 11:00:00 17.8 14 Este 24 Este 0 -- -- 75
2020-05-26 10:00:00 15.8 15 Este 23 Este 0 -- -- 85
2020-05-26 09:00:00 13.6 13 Este 21 Este 0 -- -- 91
2020-05-26 08:00:00 13 13 Este 19 Este 0 -- -- 94
2020-05-26 07:00:00 12.1 10 Este 17 Este 0 -- -- 96
2020-05-26 06:00:00 12.2 8 Este 20 Este 0 -- -- 95
2020-05-26 05:00:00 12.9 12 Este 23 Este 0 -- -- 95
2020-05-26 04:00:00 14 13 Este 22 Este 0 -- -- 95
2020-05-26 03:00:00 14.3 8 Este 13 Este 0 -- -- 94
2020-05-26 02:00:00 14.4 3 Norte 7 Noroeste 0 -- -- 95
2020-05-26 01:00:00 13.8 4 Noroeste 7 Noroeste 0 -- -- 96
2020-05-26 00:00:00 13.4 2 Noroeste 7 Sudeste 0 -- -- 95
2020-05-25 23:00:00 13.8 5 Sudeste 13 Sudeste 0 -- -- 94
2020-05-25 22:00:00 14.6 4 Este 25 Nordeste 0 -- -- 94
2020-05-25 21:00:00 15.7 19 Nordeste 30 Este 0 -- -- 93
2020-05-25 20:00:00 17.4 11 Este 18 Este 0 -- -- 89
2020-05-25 19:00:00 18 4 Nordeste 12 Sudeste 0 -- -- 83
2020-05-25 18:00:00 17.6 6 Nordeste 10 Este 0.4 -- -- 84
2020-05-25 17:00:00 17.7 7 Sur 29 Sur 0.2 -- -- 80
2020-05-25 16:00:00 16.9 20 Sur 32 Sur 0 -- -- 79
2020-05-25 15:00:00 18.5 23 Sur 41 Sur 0 -- -- 65
2020-05-25 14:00:00 21.3 28 Sur 40 Sur 0 -- -- 59
2020-05-25 13:00:00 22.2 20 Sudeste 32 Sudeste 0 -- -- 54
2020-05-25 12:00:00 21 17 Sudeste 27 Sur 0 -- -- 68
2020-05-25 11:00:00 19.1 13 Sudeste 22 Sur 0 -- -- 80
2020-05-25 10:00:00 16.4 5 Sudeste 12 Sur 0 -- -- 91
2020-05-25 09:00:00 14.3 9 Sur 12 Sur 0 -- -- 95
2020-05-25 08:00:00 13.7 7 Sudoeste 17 Sudeste 0.4 -- -- 96
2020-05-25 07:00:00 13.7 5 Sur 8 Sudoeste 0.2 -- -- 94
2020-05-25 06:00:00 13.5 4 Este 13 Sudeste 0 -- -- 94
2020-05-25 05:00:00 13.6 9 Sudeste 14 Sur 0 -- -- 94
2020-05-25 04:00:00 13.9 12 Sudeste 18 Sudeste 0 -- -- 93
2020-05-25 03:00:00 14.6 4 Sudeste 13 Sudeste 0 -- -- 89
2020-05-25 02:00:00 15.5 11 Sudeste 21 Sudeste 0 -- -- 89
2020-05-25 01:00:00 15.5 4 Este 6 Este 0 -- -- 91
2020-05-25 00:00:00 15.3 5 Sudeste 23 Este 0 -- -- 90
2020-05-24 23:00:00 15.7 6 Sudeste 12 Sudeste 0 -- -- 87
2020-05-24 22:00:00 17 11 Este 16 Este 0 -- -- 82
2020-05-24 21:00:00 18.9 8 Este 22 Nordeste 0 -- -- 74
2020-05-24 20:00:00 20.8 17 Este 27 Este 0 -- -- 66
2020-05-24 19:00:00 22 18 Nordeste 33 Nordeste 0 -- -- 64
2020-05-24 18:00:00 22.5 23 Nordeste 40 Nordeste 0 -- -- 62
2020-05-24 17:00:00 22.9 21 Nordeste 31 Nordeste 0 -- -- 63
2020-05-24 16:00:00 23.5 19 Este 29 Este 0 -- -- 62
2020-05-24 15:00:00 22.2 18 Este 25 Nordeste 0 -- -- 63
2020-05-24 14:00:00 21.3 15 Este 22 Este 0 -- -- 65
2020-05-24 13:00:00 20.4 14 Este 28 Este 0 -- -- 66
2020-05-24 12:00:00 18.9 15 Nordeste 24 Nordeste 0 -- -- 71
2020-05-24 11:00:00 17.5 14 Este 25 Sudeste 0 -- -- 77
2020-05-24 10:00:00 16.8 15 Sudeste 23 Sudeste 0 -- -- 77
2020-05-24 09:00:00 14.1 12 Sudeste 17 Sudeste 0 -- -- 83
2020-05-24 08:00:00 10.2 3 Sudeste 13 Este 0 -- -- 91
2020-05-24 07:00:00 8.9 9 Este 15 Este 0 -- -- 93
2020-05-24 06:00:00 9.6 10 Este 16 Este 0 -- -- 91
2020-05-24 05:00:00 10.5 11 Este 15 Este 0 -- -- 92
2020-05-24 04:00:00 10.7 7 Este 10 Nordeste 0 -- -- 92
2020-05-24 03:00:00 10.8 10 Este 22 Este 0 -- -- 93
2020-05-24 02:00:00 11.5 12 Este 22 Este 0 -- -- 91
2020-05-24 01:00:00 12.1 10 Este 24 Nordeste 0 -- -- 88
2020-05-24 00:00:00 12.7 14 Nordeste 31 Este 0 -- -- 81
2020-05-23 23:00:00 12.6 15 Este 34 Nordeste 0 -- -- 83
2020-05-23 22:00:00 13.4 23 Nordeste 35 Nordeste 0 -- -- 81
2020-05-23 21:00:00 15.2 25 Este 40 Este 0 -- -- 77
2020-05-23 20:00:00 18.1 22 Este 36 Este 0 -- -- 71
2020-05-23 19:00:00 20.7 21 Nordeste 34 Nordeste 0 -- -- 65
2020-05-23 18:00:00 21.8 23 Este 42 Este 0 -- -- 63
2020-05-23 17:00:00 22.2 23 Nordeste 39 Este 0 -- -- 62
2020-05-23 16:00:00 22.6 26 Nordeste 37 Este 0 -- -- 63
2020-05-23 15:00:00 23.9 21 Nordeste 29 Este 0 -- -- 61
2020-05-23 14:00:00 24.2 13 Este 25 Nordeste 0 -- -- 61
2020-05-23 13:00:00 24.4 7 Norte 15 Nordeste 0 -- -- 48
2020-05-23 12:00:00 23 5 Nordeste 12 Norte 0 -- -- 55
2020-05-23 11:00:00 21.4 5 Noroeste 12 Noroeste 0 -- -- 61
2020-05-23 10:00:00 19.3 3 Nordeste 5 Norte 0 -- -- 74
2020-05-23 09:00:00 17.2 2 Norte 7 Sudoeste 0 -- -- 76
2020-05-23 08:00:00 13 6 Sudoeste 8 Sudoeste 0 -- -- 92
2020-05-23 07:00:00 11.6 5 Noroeste 10 Noroeste 0 -- -- 90
2020-05-23 06:00:00 12.5 4 Oeste 7 Sudoeste 0 -- -- 87
2020-05-23 05:00:00 12.9 6 Sudoeste 10 Sudoeste 0 -- -- 87
2020-05-23 04:00:00 14.5 0 Calma 10 Nordeste 0 -- -- 83
2020-05-23 03:00:00 17.2 8 Sur 22 Sur 0 -- -- 70
2020-05-23 02:00:00 17.1 10 Sur 28 Sur 0 -- -- 74
2020-05-23 01:00:00 17.8 20 Sur 29 Sur 0 -- -- 73
2020-05-23 00:00:00 16.8 9 Sur 18 Sur 0 -- -- 78
2020-05-22 23:00:00 18.4 5 Sudoeste 12 Sudoeste 0 -- -- 73
2020-05-22 22:00:00 19.8 12 Sur 15 Sur 0 -- -- 69
2020-05-22 21:00:00 23 11 Sur 15 Sudeste 0 -- -- 63
2020-05-22 20:00:00 26.2 0 Calma 11 Este 0 -- -- 57
2020-05-22 19:00:00 27.7 8 Sudeste 15 Sudeste 0 -- -- 47
2020-05-22 18:00:00 27.8 12 Sudeste 19 Este 0 -- -- 38
2020-05-22 17:00:00 27.7 11 Sudeste 18 Este 0 -- -- 38
2020-05-22 16:00:00 27.8 8 Sur 22 Este 0 -- -- 39
2020-05-22 15:00:00 27.1 8 Este 14 Este 0 -- -- 38
2020-05-22 14:00:00 26.6 7 Nordeste 13 Nordeste 0 -- -- 37
2020-05-22 13:00:00 25.5 6 Este 10 Nordeste 0 -- -- 39
2020-05-22 12:00:00 24.2 4 Nordeste 9 Nordeste 0 -- -- 50
2020-05-22 11:00:00 22 3 Este 7 Sudeste 0 -- -- 55
2020-05-22 10:00:00 18.7 3 Sudeste 6 Sur 0 -- -- 66
2020-05-22 09:00:00 15 2 Sudeste 5 Nordeste 0 -- -- 79
2020-05-22 08:00:00 10.4 3 Sudoeste 10 Oeste 0 -- -- 94
2020-05-22 07:00:00 7.9 4 Noroeste 9 Oeste 0 -- -- 92
2020-05-22 06:00:00 8.3 3 Oeste 6 Oeste 0 -- -- 92
2020-05-22 05:00:00 8.9 3 Oeste 9 Sudoeste 0 -- -- 89
2020-05-22 04:00:00 9.9 5 Oeste 8 Oeste 0 -- -- 87
2020-05-22 03:00:00 11.2 0 Calma 6 Sur 0 -- -- 87
2020-05-22 02:00:00 12.8 4 Oeste 9 Oeste 0 -- -- 88
2020-05-22 01:00:00 13.6 4 Sudoeste 9 Sudoeste 0 -- -- 85
2020-05-22 00:00:00 15.4 4 Oeste 9 Sudoeste 0 -- -- 80
2020-05-21 23:00:00 16.3 6 Sudoeste 11 Sur 0 -- -- 78
2020-05-21 22:00:00 17.7 9 Sur 10 Sudeste 0 -- -- 76
2020-05-21 21:00:00 22.6 5 Este 10 Nordeste 0 -- -- 63
2020-05-21 20:00:00 23.6 5 Este 14 Este 0 -- -- 56
2020-05-21 19:00:00 25.2 10 Este 19 Nordeste 0 -- -- 49
2020-05-21 18:00:00 26.1 13 Nordeste 24 Noroeste 0 -- -- 48
2020-05-21 17:00:00 27.7 9 Noroeste 23 Noroeste 0 -- -- 33
2020-05-21 16:00:00 26.4 9 Este 15 Este 0 -- -- 37
2020-05-21 15:00:00 25.9 11 Nordeste 20 Nordeste 0 -- -- 38
2020-05-21 14:00:00 25 8 Nordeste 14 Este 0 -- -- 45
2020-05-21 13:00:00 23.5 6 Nordeste 12 Nordeste 0 -- -- 56
2020-05-21 12:00:00 22.5 2 Sudeste 7 Norte 0 -- -- 60
2020-05-21 11:00:00 19.9 3 Sur 7 Oeste 0 -- -- 65
2020-05-21 10:00:00 17.2 2 Este 5 Nordeste 0 -- -- 72
2020-05-21 09:00:00 14.1 0 Calma 4 Nordeste 0 -- -- 81
2020-05-21 08:00:00 9.3 0 Calma 6 Sudoeste 0 -- -- 96
2020-05-21 07:00:00 6.7 3 Oeste 7 Oeste 0 -- -- 94
2020-05-21 06:00:00 7 0 Calma 9 Oeste 0 -- -- 93
2020-05-21 05:00:00 7.3 4 Oeste 6 Oeste 0 -- -- 93
2020-05-21 04:00:00 8.5 4 Norte 15 Sudoeste 0 -- -- 89
2020-05-21 03:00:00 8.6 8 Oeste 14 Sudoeste 0 -- -- 90
2020-05-21 02:00:00 9.3 10 Oeste 12 Oeste 0 -- -- 89
2020-05-21 01:00:00 10.8 5 Oeste 11 Sudoeste 0 -- -- 86
2020-05-21 00:00:00 11.2 10 Sudoeste 13 Sudoeste 0 -- -- 84
2020-05-20 23:00:00 12.4 6 Sudoeste 10 Sudoeste 0 -- -- 78
2020-05-20 22:00:00 15 4 Sudeste 12 Este 0 -- -- 72
2020-05-20 21:00:00 19.7 7 Este 14 Nordeste 0 -- -- 61
2020-05-20 20:00:00 24 7 Norte 14 Norte 0 -- -- 40
2020-05-20 19:00:00 24.9 9 Norte 19 Norte 0 -- -- 26
2020-05-20 18:00:00 24.7 10 Nordeste 23 Norte 0 -- -- 32
2020-05-20 17:00:00 24.5 12 Nordeste 22 Nordeste 0 -- -- 35
2020-05-20 16:00:00 24.2 11 Norte 21 Nordeste 0 -- -- 41
2020-05-20 15:00:00 23.3 12 Nordeste 21 Norte 0 -- -- 46
2020-05-20 14:00:00 22.4 14 Norte 24 Nordeste 0 -- -- 49
2020-05-20 13:00:00 21.4 10 Norte 17 Norte 0 -- -- 50
2020-05-20 12:00:00 19.5 5 Norte 15 Sur 0 -- -- 56
2020-05-20 11:00:00 17.2 5 Norte 10 Nordeste 0 -- -- 63
2020-05-20 10:00:00 15.1 6 Este 9 Nordeste 0 -- -- 76
2020-05-20 09:00:00 12.3 2 Norte 7 Sudoeste 0 -- -- 86
2020-05-20 08:00:00 8.3 0 Calma 10 Oeste 0 -- -- 97
2020-05-20 07:00:00 5.3 6 Oeste 10 Oeste 0 -- -- 95
2020-05-20 06:00:00 5.7 6 Sudoeste 9 Oeste 0 -- -- 94
2020-05-20 05:00:00 6.6 10 Oeste 13 Oeste 0 -- -- 96
2020-05-20 04:00:00 7 2 Sudoeste 9 Oeste 0 -- -- 91
2020-05-20 03:00:00 8.8 6 Oeste 9 Oeste 0 -- -- 91
2020-05-20 02:00:00 9.4 4 Este 18 Sudoeste 0 -- -- 91
2020-05-20 01:00:00 10.2 10 Sudoeste 13 Sudoeste 0 -- -- 90
2020-05-20 00:00:00 10.7 8 Oeste 11 Sudoeste 0 -- -- 89
2020-05-19 23:00:00 12 7 Sudoeste 12 Sudoeste 0 -- -- 83
2020-05-19 22:00:00 14.3 4 Sur 9 Este 0 -- -- 75
2020-05-19 21:00:00 18.1 6 Nordeste 13 Este 0 -- -- 65
2020-05-19 20:00:00 21.2 8 Este 15 Nordeste 0 -- -- 54
2020-05-19 19:00:00 20.9 7 Nordeste 15 Norte 0 -- -- 51
2020-05-19 18:00:00 22.3 6 Norte 17 Nordeste 0 -- -- 42
2020-05-19 17:00:00 23.1 6 Norte 17 Noroeste 0 -- -- 42
2020-05-19 16:00:00 22.1 8 Norte 17 Noroeste 0 -- -- 45
2020-05-19 15:00:00 21.4 8 Norte 25 Norte 0 -- -- 49
2020-05-19 14:00:00 20.4 8 Norte 18 Nordeste 0 -- -- 48
2020-05-19 13:00:00 19.2 4 Este 14 Norte 0 -- -- 59
2020-05-19 12:00:00 17.2 5 Nordeste 10 Sudeste 0 -- -- 64
2020-05-19 11:00:00 15.2 5 Norte 13 Norte 0 -- -- 68
2020-05-19 10:00:00 12.6 5 Norte 10 Noroeste 0 -- -- 78
2020-05-19 09:00:00 9.6 5 Norte 8 Noroeste 0 -- -- 86
2020-05-19 08:00:00 6.7 0 Calma 6 Norte 0 -- -- 96
2020-05-19 07:00:00 3.7 2 Noroeste 6 Oeste 0 -- -- 93
2020-05-19 06:00:00 4.3 3 Oeste 8 Oeste 0 -- -- 93
2020-05-19 05:00:00 5 4 Oeste 10 Oeste 0 -- -- 91
2020-05-19 04:00:00 6 6 Oeste 9 Oeste 0 -- -- 93
2020-05-19 03:00:00 6.5 7 Oeste 11 Oeste 0 -- -- 92
2020-05-19 02:00:00 6.8 6 Sudoeste 9 Sudoeste 0 -- -- 93
2020-05-19 01:00:00 7.3 3 Sur 5 Sudeste 0 -- -- 90
2020-05-19 00:00:00 8.8 3 Sudoeste 9 Este 0 -- -- 89
2020-05-18 23:00:00 10.1 5 Sudeste 12 Sudeste 0 -- -- 85
2020-05-18 22:00:00 12.2 5 Sudeste 14 Este 0 -- -- 79
2020-05-18 21:00:00 16 10 Este 17 Nordeste 0 -- -- 67
2020-05-18 20:00:00 19.8 10 Nordeste 22 Norte 0 -- -- 51
2020-05-18 19:00:00 20.8 14 Norte 24 Norte 0 -- -- 45
2020-05-18 18:00:00 21 14 Norte 25 Noroeste 0 -- -- 47
2020-05-18 17:00:00 20.6 14 Nordeste 26 Norte 0 -- -- 49
2020-05-18 16:00:00 20.3 16 Nordeste 28 Nordeste 0 -- -- 52
2020-05-18 15:00:00 19.5 13 Norte 20 Norte 0 -- -- 49
2020-05-18 14:00:00 18.9 10 Norte 20 Nordeste 0 -- -- 51
2020-05-18 13:00:00 17.5 9 Norte 20 Norte 0 -- -- 53
2020-05-18 12:00:00 16.2 9 Norte 17 Noroeste 0 -- -- 53
2020-05-18 11:00:00 14.3 9 Noroeste 15 Norte 0 -- -- 61
2020-05-18 10:00:00 11.9 7 Norte 13 Noroeste 0 -- -- 73
2020-05-18 09:00:00 9.2 4 Nordeste 7 Nordeste 0 -- -- 92
2020-05-18 08:00:00 4.9 6 Oeste 9 Oeste 0 -- -- 98
2020-05-18 07:00:00 1.8 3 Sudeste 6 Sudeste 0 -- -- 96
2020-05-18 06:00:00 2.7 0 Calma 6 Norte 0 -- -- 93
2020-05-18 05:00:00 4.6 0 Calma 11 Noroeste 0 -- -- 92
2020-05-18 04:00:00 5.5 10 Oeste 14 Oeste 0 -- -- 95
2020-05-18 03:00:00 4.9 8 Sudoeste 10 Sudoeste 0 -- -- 94
2020-05-18 02:00:00 5.6 5 Oeste 11 Sudoeste 0 -- -- 92
2020-05-18 01:00:00 5.9 7 Sudoeste 10 Sudoeste 0 -- -- 91
2020-05-18 00:00:00 7.8 4 Sudeste 7 Sudeste 0 -- -- 87
2020-05-17 23:00:00 9.2 0 Calma 6 Este 0 -- -- 84
2020-05-17 22:00:00 11 5 Este 14 Este 0 -- -- 80
2020-05-17 21:00:00 14.1 10 Nordeste 17 Norte 0 -- -- 73
2020-05-17 20:00:00 17 8 Nordeste 20 Nordeste 0 -- -- 56
2020-05-17 19:00:00 16.6 11 Nordeste 18 Nordeste 0 -- -- 60
2020-05-17 18:00:00 18 8 Norte 17 Nordeste 0 -- -- 56
2020-05-17 17:00:00 17.8 9 Norte 21 Norte 0 -- -- 53
2020-05-17 16:00:00 17.4 7 Nordeste 14 Nordeste 0 -- -- 55
2020-05-17 15:00:00 16.4 7 Nordeste 13 Este 0 -- -- 61
2020-05-17 14:00:00 15.3 5 Nordeste 15 Nordeste 0 -- -- 66
2020-05-17 13:00:00 13.6 8 Norte 24 Nordeste 0 -- -- 65
2020-05-17 12:00:00 13.3 9 Norte 15 Nordeste 0 -- -- 68
2020-05-17 11:00:00 12 9 Nordeste 15 Norte 0 -- -- 73
2020-05-17 10:00:00 10.5 4 Norte 8 Sudeste 0 -- -- 76
2020-05-17 09:00:00 9.6 2 Nordeste 5 Nordeste 0 -- -- 81
2020-05-17 08:00:00 7.5 0 Calma 5 Sur 0 -- -- 95
2020-05-17 07:00:00 6.5 4 Sudeste 5 Sudeste 0 -- -- 96
2020-05-17 06:00:00 6.5 0 Calma 4 Sur 0 -- -- 96
2020-05-17 05:00:00 6 0 Calma 9 Oeste 0 -- -- 96
2020-05-17 04:00:00 4.5 5 Oeste 9 Oeste 0 -- -- 96
2020-05-17 03:00:00 4.7 3 Oeste 19 Norte 0 -- -- 89
2020-05-17 02:00:00 7.5 13 Norte 26 Nordeste 0 -- -- 83
2020-05-17 01:00:00 7.6 7 Norte 15 Norte 0 -- -- 83
2020-05-17 00:00:00 8.7 7 Norte 28 Norte 0 -- -- 82
2020-05-16 23:00:00 9.7 16 Norte 24 Norte 0 -- -- 79
2020-05-16 22:00:00 9.8 8 Norte 19 Nordeste 0 -- -- 84
2020-05-16 21:00:00 10.9 10 Norte 18 Norte 0 -- -- 80
2020-05-16 20:00:00 11.1 5 Norte 12 Norte 0 -- -- 83
2020-05-16 19:00:00 11 6 Norte 13 Nordeste 0 -- -- 86
2020-05-16 18:00:00 11.4 9 Nordeste 21 Nordeste 0 -- -- 82
2020-05-16 17:00:00 11.9 13 Nordeste 20 Nordeste 0 -- -- 79
2020-05-16 16:00:00 11.7 13 Nordeste 22 Norte 0 -- -- 83
2020-05-16 15:00:00 10.3 11 Norte 22 Norte 0 -- -- 87
2020-05-16 14:00:00 9.6 15 Norte 24 Nordeste 0 -- -- 90
2020-05-16 13:00:00 9.6 14 Norte 21 Norte 0 -- -- 89
2020-05-16 12:00:00 8.7 11 Nordeste 17 Nordeste 0 -- -- 92
2020-05-16 11:00:00 8.5 8 Nordeste 16 Nordeste 0 -- -- 92
2020-05-16 10:00:00 7.8 7 Este 14 Nordeste 0 -- -- 95
2020-05-16 09:00:00 7.1 8 Nordeste 14 Nordeste 0 -- -- 97
2020-05-16 08:00:00 6.6 8 Nordeste 14 Nordeste 0 -- -- 97
2020-05-16 07:00:00 6.4 10 Este 17 Este 0 -- -- 97
2020-05-16 06:00:00 6.5 12 Este 23 Este 0 -- -- 98
2020-05-16 05:00:00 6.9 10 Este 18 Nordeste 0 -- -- 98
2020-05-16 04:00:00 7 12 Nordeste 20 Nordeste 0 -- -- 98
2020-05-16 03:00:00 7.3 14 Nordeste 23 Nordeste 0 -- -- 98
2020-05-16 02:00:00 7.5 13 Este 26 Nordeste 0.8 -- -- 97
2020-05-16 01:00:00 7.6 16 Este 30 Este 0 -- -- 97
2020-05-16 00:00:00 7.7 18 Este 32 Este 0 -- -- 96
2020-05-15 23:00:00 8.2 18 Nordeste 28 Nordeste 0.2 -- -- 96
2020-05-15 22:00:00 8.9 14 Este 32 Nordeste 0 -- -- 96
2020-05-15 21:00:00 9.2 18 Este 29 Este 0 -- -- 95
2020-05-15 20:00:00 9.7 18 Nordeste 28 Nordeste 0.2 -- -- 94
2020-05-15 19:00:00 10.1 17 Nordeste 28 Nordeste 3.4 -- -- 94
2020-05-15 18:00:00 10.3 11 Nordeste 26 Nordeste 1.6 -- -- 92
2020-05-15 17:00:00 11.3 18 Nordeste 33 Nordeste 0 -- -- 83
2020-05-15 16:00:00 12.8 19 Este 28 Este 0 -- -- 77
2020-05-15 15:00:00 12.8 18 Nordeste 26 Este 0 -- -- 78
2020-05-15 14:00:00 11.5 15 Nordeste 21 Nordeste 0 -- -- 83
2020-05-15 13:00:00 11.3 13 Nordeste 19 Nordeste 0 -- -- 83
2020-05-15 12:00:00 10.6 11 Este 19 Este 0 -- -- 90
2020-05-15 11:00:00 9.4 12 Nordeste 19 Nordeste 0 -- -- 93
2020-05-15 10:00:00 9.6 2 Sudeste 7 Oeste 0 -- -- 92
2020-05-15 09:00:00 8.7 0 Calma 11 Sudoeste 0 -- -- 97
2020-05-15 08:00:00 8.2 2 Sudoeste 6 Sudoeste 0 -- -- 97
2020-05-15 07:00:00 7.8 4 Sur 15 Sudoeste 0 -- -- 97
2020-05-15 06:00:00 7.7 6 Sudoeste 12 Sudoeste 0.2 -- -- 97
2020-05-15 05:00:00 7.8 5 Nordeste 6 Nordeste 0.6 -- -- 96
2020-05-15 04:00:00 8.1 0 Calma 7 Oeste 1 -- -- 96
2020-05-15 03:00:00 8.1 4 Oeste 11 Oeste 1.4 -- -- 95
2020-05-15 02:00:00 8.1 8 Oeste 17 Oeste 1.6 -- -- 95
2020-05-15 01:00:00 8.2 9 Oeste 17 Oeste 1.4 -- -- 95
2020-05-15 00:00:00 8.3 3 Norte 11 Oeste 0.6 -- -- 95
2020-05-14 23:00:00 8.3 6 Noroeste 15 Noroeste 0.6 -- -- 93
2020-05-14 22:00:00 8.3 10 Oeste 21 Oeste 0.8 -- -- 92
2020-05-14 21:00:00 8.5 14 Oeste 32 Oeste 0.4 -- -- 89
2020-05-14 20:00:00 8.8 20 Oeste 36 Oeste 0.2 -- -- 87
2020-05-14 19:00:00 9.6 21 Oeste 34 Oeste 0 -- -- 83
2020-05-14 18:00:00 9.9 22 Oeste 35 Oeste 0.2 -- -- 85
2020-05-14 17:00:00 10 18 Oeste 40 Oeste 0 -- -- 85
2020-05-14 16:00:00 10.2 24 Oeste 40 Oeste 0.6 -- -- 85
2020-05-14 15:00:00 9.4 20 Oeste 36 Oeste 1 -- -- 91
2020-05-14 14:00:00 9.8 17 Noroeste 25 Noroeste 6.2 -- -- 94
2020-05-14 13:00:00 9.5 2 Oeste 10 Norte 3.6 -- -- 93
2020-05-14 12:00:00 9.9 0 Calma 6 Oeste 0 -- -- 94
2020-05-14 11:00:00 9.3 4 Sudoeste 12 Este 0.2 -- -- 97
2020-05-14 10:00:00 8.3 6 Norte 9 Noroeste 1.8 -- -- 98
2020-05-14 09:00:00 7.8 3 Norte 8 Sudoeste 0 -- -- 98
2020-05-14 08:00:00 6.4 5 Sudoeste 9 Sudoeste 0 -- -- 98
2020-05-14 07:00:00 5.2 2 Noroeste 9 Este 0 -- -- 97
2020-05-14 06:00:00 5 6 Sudoeste 13 Sudoeste 0 -- -- 97
2020-05-14 05:00:00 4.4 5 Sudoeste 7 Sudoeste 0 -- -- 95
2020-05-14 04:00:00 5.5 2 Noroeste 7 Oeste 0 -- -- 95
2020-05-14 03:00:00 5.8 4 Oeste 8 Sudoeste 0 -- -- 95
2020-05-14 02:00:00 5.7 0 Calma 9 Este 0 -- -- 94
2020-05-14 01:00:00 6 3 Sur 12 Este 0 -- -- 93
2020-05-14 00:00:00 6.9 6 Este 15 Este 0 -- -- 92
2020-05-13 23:00:00 8.9 4 Noroeste 14 Norte 0 -- -- 88
2020-05-13 22:00:00 9.6 7 Sudoeste 12 Sudeste 0 -- -- 86
2020-05-13 21:00:00 13.3 4 Norte 16 Oeste 0 -- -- 73
2020-05-13 20:00:00 14.9 4 Sur 9 Noroeste 0 -- -- 63
2020-05-13 19:00:00 16.4 4 Noroeste 14 Sudoeste 0 -- -- 59
2020-05-13 18:00:00 15 6 Oeste 29 Sudoeste 0 -- -- 60
2020-05-13 17:00:00 14.4 12 Oeste 21 Oeste 0 -- -- 63
2020-05-13 16:00:00 12.7 12 Oeste 19 Oeste 0 -- -- 69
2020-05-13 15:00:00 12.9 10 Noroeste 23 Noroeste 0 -- -- 69
2020-05-13 14:00:00 13.7 13 Oeste 27 Oeste 0 -- -- 66
2020-05-13 13:00:00 11.6 19 Oeste 31 Oeste 0 -- -- 73
2020-05-13 12:00:00 11.6 19 Noroeste 32 Oeste 0 -- -- 75
2020-05-13 11:00:00 10.5 20 Noroeste 33 Oeste 0 -- -- 79
2020-05-13 10:00:00 9.6 15 Oeste 27 Oeste 0 -- -- 85
2020-05-13 09:00:00 8.7 13 Oeste 24 Oeste 0 -- -- 86
2020-05-13 08:00:00 7.7 11 Oeste 20 Oeste 0 -- -- 89
2020-05-13 07:00:00 7.4 6 Noroeste 10 Oeste 0 -- -- 94
2020-05-13 06:00:00 6.6 3 Sur 13 Oeste 0 -- -- 92
2020-05-13 05:00:00 6.9 10 Oeste 16 Oeste 0 -- -- 93
2020-05-13 04:00:00 5.7 5 Sudeste 6 Sur 0 -- -- 95
2020-05-13 03:00:00 6.7 3 Sudoeste 20 Sur 0 -- -- 93
2020-05-13 02:00:00 6.7 15 Sur 26 Sur 0 -- -- 94
2020-05-13 01:00:00 7.1 11 Sudoeste 18 Sudoeste 0 -- -- 94
2020-05-13 00:00:00 7.7 5 Sur 20 Sudoeste 2 -- -- 91
2020-05-12 23:00:00 8.6 14 Sudoeste 38 Sudoeste 1.6 -- -- 89
2020-05-12 22:00:00 9.4 4 Sudeste 11 Este 3.8 -- -- 96
2020-05-12 21:00:00 9.3 0 Calma 14 Nordeste 2.8 -- -- 94
2020-05-12 20:00:00 10.1 4 Este 15 Nordeste 2.2 -- -- 95
2020-05-12 19:00:00 9.8 8 Nordeste 16 Nordeste 4.6 -- -- 93
2020-05-12 18:00:00 10.9 13 Nordeste 20 Nordeste 1 -- -- 90
2020-05-12 17:00:00 11.8 11 Norte 19 Nordeste 0.2 -- -- 84
2020-05-12 16:00:00 12.5 9 Norte 13 Norte 0 -- -- 82
2020-05-12 15:00:00 12.6 4 Noroeste 8 Noroeste 0.4 -- -- 83
2020-05-12 14:00:00 12.5 7 Sur 12 Sur 0.4 -- -- 85
2020-05-12 13:00:00 13.8 5 Sudeste 15 Sudeste 0 -- -- 75
2020-05-12 12:00:00 13.1 9 Sur 14 Sudeste 0 -- -- 79
2020-05-12 11:00:00 11.5 8 Sur 13 Sur 0 -- -- 86
2020-05-12 10:00:00 10.4 4 Este 7 Este 0 -- -- 91
2020-05-12 09:00:00 8.5 4 Este 5 Sudeste 0 -- -- 96
2020-05-12 08:00:00 7.3 2 Oeste 10 Sudoeste 0 -- -- 96
2020-05-12 07:00:00 7 6 Oeste 23 Sudoeste 0 -- -- 95
2020-05-12 06:00:00 7.4 13 Sudoeste 22 Sudoeste 0 -- -- 98
2020-05-12 05:00:00 3.2 3 Sudoeste 7 Sudoeste 0 -- -- 94
2020-05-12 04:00:00 4.5 2 Sudoeste 6 Sudeste 0 -- -- 93
2020-05-12 03:00:00 5.7 0 Calma 12 Nordeste 0 -- -- 92
2020-05-12 02:00:00 6.3 2 Nordeste 10 Oeste 0 -- -- 90
2020-05-12 01:00:00 8.7 6 Noroeste 12 Oeste 0 -- -- 89
2020-05-12 00:00:00 8.5 3 Nordeste 17 Noroeste 0 -- -- 92
2020-05-11 23:00:00 8.3 3 Sudeste 8 Oeste 0 -- -- 90
2020-05-11 22:00:00 10.5 5 Oeste 18 Oeste 0 -- -- 86
2020-05-11 21:00:00 11.5 11 Noroeste 29 Noroeste 0 -- -- 85
2020-05-11 20:00:00 13.4 14 Norte 42 Oeste 0 -- -- 70
2020-05-11 19:00:00 16.5 22 Oeste 38 Oeste 0 -- -- 51
2020-05-11 18:00:00 17.3 21 Oeste 40 Oeste 0 -- -- 49
2020-05-11 17:00:00 17 24 Oeste 44 Oeste 0 -- -- 49
2020-05-11 16:00:00 16.9 21 Oeste 41 Oeste 0 -- -- 48
2020-05-11 15:00:00 16.7 26 Oeste 44 Noroeste 0 -- -- 48
2020-05-11 14:00:00 16.7 30 Oeste 49 Oeste 0 -- -- 50
2020-05-11 13:00:00 16.1 29 Oeste 48 Oeste 0 -- -- 50
2020-05-11 12:00:00 14.7 30 Oeste 51 Oeste 0 -- -- 54
2020-05-11 11:00:00 13.5 29 Oeste 41 Noroeste 0 -- -- 61
2020-05-11 10:00:00 11.6 25 Oeste 45 Oeste 0 -- -- 69
2020-05-11 09:00:00 10.8 21 Oeste 35 Oeste 0 -- -- 76
2020-05-11 08:00:00 8.5 11 Oeste 19 Oeste 0 -- -- 87
2020-05-11 07:00:00 6.8 13 Oeste 23 Oeste 0 -- -- 91
2020-05-11 06:00:00 6.7 13 Oeste 21 Oeste 0 -- -- 90
2020-05-11 05:00:00 7.3 13 Oeste 25 Oeste 0 -- -- 87
2020-05-11 04:00:00 8.5 11 Oeste 26 Oeste 0 -- -- 83
2020-05-11 03:00:00 9.6 18 Oeste 31 Oeste 0 -- -- 77
2020-05-11 02:00:00 9.9 17 Oeste 26 Oeste 0 -- -- 78
2020-05-11 01:00:00 9.3 15 Oeste 23 Oeste 0 -- -- 82
2020-05-11 00:00:00 9 13 Oeste 26 Oeste 0 -- -- 83
2020-05-10 23:00:00 11.3 14 Oeste 29 Oeste 0 -- -- 74
2020-05-10 22:00:00 12.4 19 Oeste 32 Oeste 0 -- -- 69
2020-05-10 21:00:00 13.1 9 Noroeste 26 Oeste 0 -- -- 66
2020-05-10 20:00:00 13.7 25 Oeste 41 Oeste 0 -- -- 59
2020-05-10 19:00:00 15.2 25 Oeste 46 Noroeste 0 -- -- 53
2020-05-10 18:00:00 14.1 29 Oeste 51 Oeste 0 -- -- 57
2020-05-10 17:00:00 13.5 22 Oeste 54 Noroeste 0.2 -- -- 68
2020-05-10 16:00:00 11 23 Noroeste 46 Noroeste 0.2 -- -- 83
2020-05-10 15:00:00 13.8 25 Oeste 41 Oeste 0 -- -- 66
2020-05-10 14:00:00 11.1 21 Noroeste 38 Oeste -- -- -- 82
2020-05-10 13:00:00 11.1 21 Norte 42 Oeste 0 -- -- 79
2020-05-10 12:00:00 12.4 22 Oeste 34 Oeste 0 -- -- 68
2020-05-10 11:00:00 12.3 23 Oeste 35 Oeste 0 -- -- 70
2020-05-10 10:00:00 12.4 23 Oeste 37 Oeste 0 -- -- 72
2020-05-10 09:00:00 11.5 13 Noroeste 34 Oeste 0 -- -- 78
2020-05-10 08:00:00 9.7 11 Oeste 17 Oeste 0 -- -- 84
2020-05-10 07:00:00 7.1 4 Sudeste 12 Noroeste 0 -- -- 88
2020-05-10 06:00:00 10 5 Oeste 19 Oeste 0 -- -- 77
2020-05-10 05:00:00 11.4 14 Oeste 19 Oeste 0 -- -- 70
2020-05-10 04:00:00 10.1 8 Oeste 13 Oeste 0 -- -- 77
2020-05-10 03:00:00 11.8 5 Oeste 15 Sudoeste 0 -- -- 71
2020-05-10 02:00:00 10.7 8 Sudoeste 15 Sur 0 -- -- 82
2020-05-10 01:00:00 12.2 12 Sudoeste 22 Sudoeste 0 -- -- 85
2020-05-10 00:00:00 13.3 13 Sur 20 Sudoeste 0 -- -- 80
2020-05-09 23:00:00 14.8 15 Sudoeste 30 Sur 0 -- -- 75
2020-05-09 22:00:00 16.2 18 Sudoeste 35 Sur 0 -- -- 77
2020-05-09 21:00:00 19.1 8 Oeste 19 Sudoeste 0 -- -- 48
2020-05-09 20:00:00 21.9 15 Sudoeste 28 Oeste 0 -- -- 41
2020-05-09 19:00:00 22.7 16 Oeste 31 Oeste 0 -- -- 40
2020-05-09 18:00:00 22.5 19 Oeste 34 Noroeste 0 -- -- 38
2020-05-09 17:00:00 23 19 Oeste 31 Oeste 0 -- -- 37
2020-05-09 16:00:00 22.4 15 Oeste 31 Sudoeste 0 -- -- 43
2020-05-09 15:00:00 21.2 8 Este 13 Este 0.2 -- -- 63
2020-05-09 14:00:00 20.7 10 Sudeste 17 Sudeste 0 -- -- 59
2020-05-09 13:00:00 19 5 Sur 15 Sudeste 0 -- -- 67
2020-05-09 12:00:00 20.1 4 Sudeste 21 Sudeste 0 -- -- 65
2020-05-09 11:00:00 18.4 14 Sudeste 21 Sudeste 0 -- -- 71
2020-05-09 10:00:00 17 3 Sur 14 Sudeste 0 -- -- 71
2020-05-09 09:00:00 12.5 12 Sudeste 21 Sudeste 0 -- -- 92
2020-05-09 08:00:00 13.1 8 Oeste 29 Sur 0 -- -- 83
2020-05-09 07:00:00 12 11 Sudoeste 34 Sur 0 -- -- 83
2020-05-09 06:00:00 11.5 15 Sur 31 Sudeste 0 -- -- 87
2020-05-09 05:00:00 12.2 16 Sur 28 Sur 0 -- -- 86
2020-05-09 04:00:00 12 3 Oeste 16 Sur 0 -- -- 85
2020-05-09 03:00:00 12.3 5 Sudoeste 13 Oeste 0 -- -- 86
2020-05-09 02:00:00 13.6 6 Nordeste 24 Sur 0 -- -- 73
2020-05-09 01:00:00 14.2 4 Nordeste 21 Sudeste 0 -- -- 73
2020-05-09 00:00:00 13.8 6 Sudeste 15 Este 0 -- -- 77
2020-05-08 23:00:00 15.7 12 Sudeste 38 Sur 0 -- -- 65
2020-05-08 22:00:00 17.7 27 Sur 44 Sur 0 -- -- 57
2020-05-08 21:00:00 20 32 Sur 47 Sur 0 -- -- 57
2020-05-08 20:00:00 22.3 23 Sudeste 36 Sur 0 -- -- 44
2020-05-08 19:00:00 24 20 Sur 28 Sur 0 -- -- 40
2020-05-08 18:00:00 24.8 9 Sudeste 36 Sudeste 0 -- -- 40
2020-05-08 17:00:00 24.6 15 Este 26 Sudeste 0 -- -- 39
2020-05-08 16:00:00 23 3 Nordeste 22 Sudeste 0 -- -- 39
2020-05-08 15:00:00 23.2 9 Sudeste 22 Sudeste 0 -- -- 38
2020-05-08 14:00:00 21.9 10 Norte 17 Este 0 -- -- 42
2020-05-08 13:00:00 20.4 6 Este 16 Sudeste 0 -- -- 47
2020-05-08 12:00:00 18.9 9 Sudeste 19 Sudeste 0 -- -- 54
2020-05-08 11:00:00 17.6 10 Sudeste 25 Sur 0 -- -- 59
2020-05-08 10:00:00 15.9 10 Sur 16 Sur 0 -- -- 67
2020-05-08 09:00:00 12.3 4 Sudeste 13 Sur 0 -- -- 83
2020-05-08 08:00:00 6.1 8 Sur 10 Sudoeste 0 -- -- 95
2020-05-08 07:00:00 6.7 4 Noroeste 7 Noroeste 0 -- -- 90
2020-05-08 06:00:00 7.7 4 Sur 11 Sudeste 0 -- -- 90
2020-05-08 05:00:00 8.7 4 Norte 18 Sudeste 0 -- -- 89
2020-05-08 04:00:00 10.3 14 Sudeste 19 Sudeste 0 -- -- 86
2020-05-08 03:00:00 10.9 9 Sudeste 20 Sur 0 -- -- 83
2020-05-08 02:00:00 11.8 6 Sur 19 Sur 0 -- -- 78
2020-05-08 01:00:00 12.4 5 Sur 26 Sur 0 -- -- 76
2020-05-08 00:00:00 13 12 Sur 21 Sur 0 -- -- 76
2020-05-07 23:00:00 14.7 13 Sur 31 Sur 0 -- -- 69
2020-05-07 22:00:00 16.1 20 Sur 32 Sur 0 -- -- 64
2020-05-07 21:00:00 17.8 21 Sur 36 Sur 0 -- -- 58
2020-05-07 20:00:00 19.4 18 Sur 39 Sur 0 -- -- 54
2020-05-07 19:00:00 21.6 26 Sur 35 Sur 0 -- -- 48
2020-05-07 18:00:00 21.7 21 Sudeste 33 Sudeste 0 -- -- 50
2020-05-07 17:00:00 22.4 24 Sudeste 40 Sur 0 -- -- 49
2020-05-07 16:00:00 22.6 24 Sudeste 38 Sudeste 0 -- -- 51
2020-05-07 15:00:00 22.6 24 Sudeste 40 Sudeste 0 -- -- 53
2020-05-07 14:00:00 22.4 26 Sur 38 Sur 0 -- -- 50
2020-05-07 13:00:00 21.9 26 Sur 40 Sur 0 -- -- 49
2020-05-07 12:00:00 20.8 23 Sur 35 Sur 0 -- -- 53
2020-05-07 11:00:00 18.9 20 Sudeste 34 Sur 0 -- -- 58
2020-05-07 10:00:00 17.7 21 Sur 31 Sur 0 -- -- 62
2020-05-07 09:00:00 13.5 4 Este 14 Sur 0 -- -- 87
2020-05-07 08:00:00 9.4 6 Sudoeste 15 Sudoeste 0 -- -- 95
2020-05-07 07:00:00 8.1 4 Sudeste 9 Sur 0 -- -- 91
2020-05-07 06:00:00 9.4 7 Sudeste 10 Sur 0 -- -- 93
2020-05-07 05:00:00 10.6 3 Sur 15 Sudoeste 0 -- -- 91
2020-05-07 04:00:00 9.3 11 Sur 13 Sudeste 0 -- -- 93
2020-05-07 03:00:00 8.8 5 Sudeste 11 Este 0 -- -- 85
2020-05-07 02:00:00 9.2 4 Sudoeste 11 Sur 0 -- -- 77
2020-05-07 01:00:00 9.1 8 Sudeste 13 Sur 0 -- -- 78
2020-05-07 00:00:00 9.5 4 Sudoeste 6 Sudoeste 0 -- -- 77
2020-05-06 23:00:00 11.6 0 Calma 7 Este 0 -- -- 70
2020-05-06 22:00:00 13.6 0 Calma 13 Este 0 -- -- 65
2020-05-06 21:00:00 17.8 8 Nordeste 22 Nordeste 0 -- -- 51
2020-05-06 20:00:00 22.1 8 Nordeste 10 Nordeste 0 -- -- 43
2020-05-06 19:00:00 23.8 5 Nordeste 12 Nordeste 0 -- -- 34
2020-05-06 18:00:00 23.2 9 Nordeste 18 Nordeste 0 -- -- 35
2020-05-06 17:00:00 23.6 11 Nordeste 23 Noroeste 0 -- -- 35
2020-05-06 16:00:00 22.7 4 Nordeste 17 Este 0 -- -- 34
2020-05-06 15:00:00 21.9 8 Este 14 Norte 0 -- -- 37
2020-05-06 14:00:00 21.4 6 Noroeste 15 Sudoeste 0 -- -- 37
2020-05-06 13:00:00 20 4 Nordeste 18 Este 0 -- -- 40
2020-05-06 12:00:00 18.2 5 Nordeste 12 Nordeste 0 -- -- 48
2020-05-06 11:00:00 16.2 2 Sudoeste 5 Nordeste 0 -- -- 50
2020-05-06 10:00:00 12.8 0 Calma 4 Este 0 -- -- 62
2020-05-06 09:00:00 9 0 Calma 6 Oeste 0 -- -- 76
2020-05-06 08:00:00 4.6 5 Oeste 6 Oeste 0 -- -- 91
2020-05-06 07:00:00 2.3 6 Oeste 9 Oeste 0 -- -- 89
2020-05-06 06:00:00 2.6 5 Sudoeste 10 Sudoeste 0 -- -- 89
2020-05-06 05:00:00 3.7 3 Norte 10 Sudoeste 0 -- -- 86
2020-05-06 04:00:00 3.6 5 Sudoeste 8 Oeste 0 -- -- 86
2020-05-06 03:00:00 4.6 2 Sudoeste 8 Oeste 0 -- -- 84
2020-05-06 02:00:00 5.9 7 Oeste 9 Oeste 0 -- -- 80
2020-05-06 01:00:00 8.2 6 Oeste 12 Oeste 0 -- -- 70
2020-05-06 00:00:00 10.7 13 Oeste 15 Noroeste 0 -- -- 57
2020-05-05 23:00:00 9.4 4 Noroeste 10 Noroeste 0 -- -- 64
2020-05-05 22:00:00 11 4 Oeste 14 Oeste 0 -- -- 67
2020-05-05 21:00:00 17 5 Sudoeste 13 Oeste 0 -- -- 52
2020-05-05 20:00:00 21.4 11 Oeste 26 Oeste 0 -- -- 28
2020-05-05 19:00:00 20.6 18 Oeste 32 Oeste 0 -- -- 31
2020-05-05 18:00:00 22.3 17 Oeste 29 Oeste 0 -- -- 26
2020-05-05 17:00:00 22.1 16 Oeste 24 Oeste 0 -- -- 29
2020-05-05 16:00:00 22.7 14 Oeste 30 Oeste 0 -- -- 30
2020-05-05 15:00:00 22.5 19 Oeste 31 Oeste 0 -- -- 33
2020-05-05 14:00:00 21.5 12 Oeste 27 Oeste 0 -- -- 46
2020-05-05 13:00:00 20.2 11 Noroeste 22 Oeste 0 -- -- 54
2020-05-05 12:00:00 18.4 7 Oeste 19 Oeste 0 -- -- 60
2020-05-05 11:00:00 17.2 8 Oeste 21 Oeste 0 -- -- 68
2020-05-05 10:00:00 16.5 10 Oeste 17 Oeste 0 -- -- 68
2020-05-05 09:00:00 14.1 5 Noroeste 9 Oeste 0 -- -- 82
2020-05-05 08:00:00 9.5 4 Norte 9 Norte 0 -- -- 94
2020-05-05 07:00:00 8.2 3 Oeste 10 Nordeste 0 -- -- 93
2020-05-05 06:00:00 9.6 6 Oeste 12 Oeste 0 -- -- 89
2020-05-05 05:00:00 10 3 Oeste 13 Sudoeste 0 -- -- 87
2020-05-05 04:00:00 12.2 9 Sudoeste 16 Sudoeste 0 -- -- 82
2020-05-05 03:00:00 11.8 9 Sudoeste 18 Sur 0 -- -- 85
2020-05-05 02:00:00 15 16 Sudoeste 29 Sudoeste 0 -- -- 74
2020-05-05 01:00:00 16.4 22 Sur 32 Sur 0 -- -- 69
2020-05-05 00:00:00 17.7 25 Sur 32 Sur 0 -- -- 67
2020-05-04 23:00:00 17.9 18 Sur 28 Sur 0 -- -- 67
2020-05-04 22:00:00 19.5 23 Sur 30 Sur 0 -- -- 62
2020-05-04 21:00:00 21.5 23 Sur 45 Sur 0 -- -- 54
2020-05-04 20:00:00 23.8 24 Sur 40 Sudoeste 0 -- -- 47
2020-05-04 19:00:00 25.9 18 Sur 41 Sur 0 -- -- 43
2020-05-04 18:00:00 25.6 30 Sur 42 Sur 0 -- -- 36
2020-05-04 17:00:00 26.4 23 Sur 44 Sur 0 -- -- 37
2020-05-04 16:00:00 26.5 33 Sur 54 Sur 0 -- -- 35
2020-05-04 15:00:00 27.3 38 Sur 50 Sur 0 -- -- 39
2020-05-04 14:00:00 27.1 34 Sur 46 Sur 0 -- -- 35
2020-05-04 13:00:00 25.8 30 Sur 38 Sur 0 -- -- 45
2020-05-04 12:00:00 24.7 21 Sur 30 Sur 0 -- -- 48
2020-05-04 11:00:00 22.2 11 Sudeste 19 Sudeste 0 -- -- 54
2020-05-04 10:00:00 18.7 10 Sudeste 15 Sur 0 -- -- 65
2020-05-04 09:00:00 12.7 2 Noroeste 7 Norte 0 -- -- 86
2020-05-04 08:00:00 9.5 5 Norte 7 Sudoeste 0 -- -- 91
2020-05-04 07:00:00 8.2 4 Oeste 6 Oeste 0 -- -- 92
2020-05-04 06:00:00 8.9 2 Noroeste 10 Sudoeste 0 -- -- 87
2020-05-04 05:00:00 9.8 6 Oeste 12 Sudoeste 0 -- -- 85
2020-05-04 04:00:00 11 0 Calma 6 Sudoeste 0 -- -- 85
2020-05-04 03:00:00 12.6 4 Oeste 12 Norte 0 -- -- 84
2020-05-04 02:00:00 14.2 8 Sur 27 Sur 0 -- -- 80
2020-05-04 01:00:00 12.7 4 Sudeste 14 Sudoeste 0 -- -- 85
2020-05-04 00:00:00 11.5 0 Calma 15 Oeste 0 -- -- 84
2020-05-03 23:00:00 12.5 5 Sur 10 Oeste 0 -- -- 79
2020-05-03 22:00:00 15.5 4 Sur 8 Sudeste 0 -- -- 70
2020-05-03 21:00:00 21.2 5 Oeste 9 Oeste 0 -- -- 54
2020-05-03 20:00:00 25.6 4 Norte 8 Este 0 -- -- 41
2020-05-03 19:00:00 25.7 5 Este 13 Este 0 -- -- 35
2020-05-03 18:00:00 25.9 4 Este 13 Este 0 -- -- 39
2020-05-03 17:00:00 25.2 8 Sudeste 18 Sudeste 0 -- -- 43
2020-05-03 16:00:00 25.3 10 Sudeste 18 Este 0 -- -- 42
2020-05-03 15:00:00 25.4 10 Sudoeste 20 Oeste 0 -- -- 44
2020-05-03 14:00:00 23.9 7 Oeste 17 Oeste 0 -- -- 36
2020-05-03 13:00:00 22 4 Sudoeste 12 Sudeste 0 -- -- 52
2020-05-03 12:00:00 20.5 5 Este 11 Sudeste 0 -- -- 61
2020-05-03 11:00:00 18.7 6 Sudeste 12 Sudeste 0 -- -- 66
2020-05-03 10:00:00 15.3 2 Este 5 Este 0 -- -- 84
2020-05-03 09:00:00 11.7 0 Calma 4 Sudoeste 0 -- -- 92
2020-05-03 08:00:00 7.1 3 Oeste 5 Oeste 0 -- -- 96
2020-05-03 07:00:00 6.4 3 Oeste 7 Oeste 0 -- -- 96
2020-05-03 06:00:00 6.4 0 Calma 8 Sudoeste 0 -- -- 94
2020-05-03 05:00:00 7 6 Sudoeste 12 Sudoeste 0 -- -- 93
2020-05-03 04:00:00 7.5 8 Sudoeste 9 Sudoeste 0 -- -- 93
2020-05-03 03:00:00 8.1 0 Calma 9 Este 0 -- -- 90
2020-05-03 02:00:00 9.1 5 Sudoeste 8 Sudoeste 0 -- -- 90
2020-05-03 01:00:00 10.2 5 Oeste 11 Oeste 0 -- -- 86
2020-05-03 00:00:00 11.2 3 Sudoeste 12 Sudoeste 0 -- -- 85
2020-05-02 23:00:00 12.6 4 Sudoeste 14 Noroeste 0 -- -- 79
2020-05-02 22:00:00 16.5 10 Noroeste 17 Noroeste 0 -- -- 68
2020-05-02 21:00:00 18.3 7 Noroeste 16 Noroeste 0 -- -- 64
2020-05-02 20:00:00 21.5 13 Noroeste 25 Noroeste 0 -- -- 47
2020-05-02 19:00:00 22.2 17 Noroeste 34 Oeste 0 -- -- 47
2020-05-02 18:00:00 22.5 21 Noroeste 40 Noroeste 0 -- -- 45
2020-05-02 17:00:00 23.3 21 Noroeste 35 Noroeste 0 -- -- 42
2020-05-02 16:00:00 23.1 24 Oeste 39 Oeste 0 -- -- 42
2020-05-02 15:00:00 22.5 19 Oeste 34 Noroeste 0 -- -- 45
2020-05-02 14:00:00 21.6 13 Noroeste 27 Noroeste 0 -- -- 50
2020-05-02 13:00:00 19.4 15 Noroeste 27 Oeste 0 -- -- 57
2020-05-02 12:00:00 17.6 10 Oeste 20 Oeste 0 -- -- 68
2020-05-02 11:00:00 15.8 12 Noroeste 23 Oeste 0 -- -- 70
2020-05-02 10:00:00 14.7 15 Oeste 26 Oeste 0 -- -- 77
2020-05-02 09:00:00 12.4 7 Oeste 21 Oeste 0 -- -- 89
2020-05-02 08:00:00 10.8 14 Oeste 26 Oeste 0 -- -- 93
2020-05-02 07:00:00 9.8 9 Oeste 17 Oeste 0 -- -- 94
2020-05-02 06:00:00 10.3 8 Oeste 14 Oeste 0 -- -- 93
2020-05-02 05:00:00 10.1 8 Noroeste 14 Oeste 0 -- -- 93
2020-05-02 04:00:00 10.5 4 Noroeste 18 Oeste 0 -- -- 92
2020-05-02 03:00:00 10.6 5 Oeste 21 Oeste 0 -- -- 90
2020-05-02 02:00:00 11.9 15 Oeste 24 Oeste 0 -- -- 90
2020-05-02 01:00:00 13 17 Oeste 25 Oeste 0 -- -- 87
2020-05-02 00:00:00 13.1 14 Oeste 22 Oeste 0 -- -- 86
2020-05-01 23:00:00 13.5 14 Oeste 25 Oeste 0 -- -- 83
2020-05-01 22:00:00 14.4 18 Oeste 32 Oeste 0 -- -- 77
2020-05-01 21:00:00 15.9 21 Oeste 39 Oeste 0 -- -- 71
2020-05-01 20:00:00 18.1 26 Oeste 43 Oeste 0 -- -- 62
2020-05-01 19:00:00 18.8 24 Oeste 37 Oeste 0 -- -- 61
2020-05-01 18:00:00 18.7 24 Oeste 47 Oeste 0 -- -- 62
2020-05-01 17:00:00 17.7 26 Oeste 45 Oeste 0 -- -- 65
2020-05-01 16:00:00 17.6 31 Oeste 51 Oeste 0 -- -- 64
2020-05-01 15:00:00 17.3 33 Oeste 59 Noroeste 0 -- -- 63
2020-05-01 14:00:00 17.1 30 Oeste 50 Oeste 0 -- -- 65
2020-05-01 13:00:00 16.3 31 Oeste 53 Oeste 0 -- -- 67
2020-05-01 12:00:00 15.7 31 Oeste 55 Oeste 0 -- -- 69
2020-05-01 11:00:00 14.9 34 Oeste 54 Oeste 0 -- -- 68
2020-05-01 10:00:00 13.9 32 Oeste 50 Oeste 0 -- -- 71
2020-05-01 09:00:00 11.8 27 Oeste 46 Oeste 0 -- -- 78
2020-05-01 08:00:00 10.1 19 Oeste 32 Sudoeste 0 -- -- 85
2020-05-01 07:00:00 9.4 19 Oeste 32 Oeste 0 -- -- 86
2020-05-01 06:00:00 9.5 11 Oeste 26 Oeste 0 -- -- 85
2020-05-01 05:00:00 9.1 14 Oeste 27 Oeste 0 -- -- 87
2020-05-01 04:00:00 9.5 17 Oeste 25 Oeste 0 -- -- 85
2020-05-01 03:00:00 10.3 19 Oeste 34 Oeste 0 -- -- 83
2020-05-01 02:00:00 11.4 23 Oeste 33 Oeste 0 -- -- 79
2020-05-01 01:00:00 10.9 19 Oeste 37 Oeste 0 -- -- 81
2020-05-01 00:00:00 11 20 Oeste 32 Oeste 0 -- -- 80
2020-04-30 23:00:00 10.8 10 Oeste 18 Oeste 0 -- -- 80
2020-04-30 22:00:00 11.6 9 Oeste 28 Oeste 0 -- -- 76
2020-04-30 21:00:00 12.8 19 Oeste 33 Noroeste 0 -- -- 69
2020-04-30 20:00:00 14.9 26 Oeste 40 Noroeste 0 -- -- 59
2020-04-30 19:00:00 16.2 24 Oeste 39 Oeste 0 -- -- 55
2020-04-30 18:00:00 16.9 24 Oeste 39 Oeste 0 -- -- 52
2020-04-30 17:00:00 16.2 23 Noroeste 41 Noroeste 0 -- -- 54
2020-04-30 16:00:00 16 24 Oeste 36 Noroeste 0 -- -- 53
2020-04-30 15:00:00 15.8 23 Noroeste 42 Oeste 0 -- -- 53
2020-04-30 14:00:00 14.3 23 Noroeste 38 Oeste 0 -- -- 56
2020-04-30 13:00:00 14.2 23 Noroeste 57 Noroeste 0 -- -- 56
2020-04-30 12:00:00 13.8 26 Noroeste 51 Noroeste 0 -- -- 56
2020-04-30 11:00:00 11.9 23 Noroeste 40 Noroeste 0 -- -- 66
2020-04-30 10:00:00 10.9 22 Noroeste 34 Oeste 0 -- -- 71
2020-04-30 09:00:00 10.5 23 Noroeste 39 Noroeste 0 -- -- 73
2020-04-30 08:00:00 9.6 17 Oeste 29 Noroeste 0 -- -- 74
2020-04-30 07:00:00 10.2 21 Oeste 38 Oeste 0 -- -- 71
2020-04-30 06:00:00 10.6 18 Oeste 31 Oeste 0 -- -- 73
2020-04-30 05:00:00 10.9 18 Oeste 38 Oeste 0 -- -- 76
2020-04-30 04:00:00 11 17 Oeste 31 Oeste 0 -- -- 77
2020-04-30 03:00:00 11.3 17 Oeste 29 Oeste 0 -- -- 75
2020-04-30 02:00:00 10.4 16 Oeste 34 Sudoeste 0 -- -- 77
2020-04-30 01:00:00 10.9 17 Oeste 33 Oeste 0 -- -- 73
2020-04-30 00:00:00 11.1 20 Oeste 32 Oeste 0 -- -- 71
2020-04-29 23:00:00 11.1 18 Oeste 34 Oeste 0 -- -- 68
2020-04-29 22:00:00 12.1 14 Oeste 33 Sudoeste 0 -- -- 63
2020-04-29 21:00:00 13.9 23 Oeste 39 Oeste 0 -- -- 55
2020-04-29 20:00:00 14.7 22 Oeste 37 Oeste 0 -- -- 50
2020-04-29 19:00:00 16.3 21 Oeste 42 Oeste 0 -- -- 49
2020-04-29 18:00:00 16.3 27 Oeste 45 Oeste 0 -- -- 46
2020-04-29 17:00:00 16.3 22 Oeste 39 Oeste 0 -- -- 50
2020-04-29 16:00:00 16.3 24 Oeste 43 Oeste 0 -- -- 49
2020-04-29 15:00:00 16.2 22 Oeste 39 Noroeste 0 -- -- 51
2020-04-29 14:00:00 15.5 20 Noroeste 35 Oeste 0 -- -- 52
2020-04-29 13:00:00 14.4 21 Oeste 35 Oeste 0 -- -- 53
2020-04-29 12:00:00 13.5 20 Noroeste 36 Oeste 0 -- -- 53
2020-04-29 11:00:00 11.9 23 Noroeste 33 Noroeste 0 -- -- 58
2020-04-29 10:00:00 9.9 12 Oeste 21 Oeste 0 -- -- 69
2020-04-29 09:00:00 7.3 9 Noroeste 13 Oeste 0 -- -- 85
2020-04-29 08:00:00 4 9 Oeste 13 Oeste 0 -- -- 96
2020-04-29 07:00:00 2.6 5 Oeste 8 Sudoeste 0 -- -- 94
2020-04-29 06:00:00 2.6 3 Noroeste 10 Nordeste 0 -- -- 94
2020-04-29 05:00:00 2.7 9 Sudoeste 13 Sudoeste 0 -- -- 93
2020-04-29 04:00:00 4.4 8 Oeste 16 Oeste 0 -- -- 90
2020-04-29 03:00:00 5.9 9 Oeste 14 Oeste 0 -- -- 89
2020-04-29 02:00:00 8 5 Noroeste 8 Oeste 0 -- -- 85
2020-04-29 01:00:00 7.1 4 Sudoeste 11 Sudoeste 0 -- -- 89
2020-04-29 00:00:00 5.6 3 Oeste 6 Oeste 0 -- -- 90
2020-04-28 23:00:00 5.8 0 Calma 12 Oeste 0 -- -- 82
2020-04-28 22:00:00 9.4 6 Noroeste 12 Noroeste 0 -- -- 72
2020-04-28 21:00:00 11.5 9 Noroeste 26 Noroeste 0 -- -- 63
2020-04-28 20:00:00 12.1 7 Noroeste 29 Noroeste 0 -- -- 63
2020-04-28 19:00:00 13.3 16 Noroeste 30 Oeste 0 -- -- 55
2020-04-28 18:00:00 15.1 20 Noroeste 42 Oeste 0 -- -- 49
2020-04-28 17:00:00 13.7 22 Noroeste 36 Oeste 0 -- -- 50
2020-04-28 16:00:00 13.9 22 Noroeste 35 Noroeste 0 -- -- 55
2020-04-28 15:00:00 13 20 Oeste 37 Noroeste 0 -- -- 57
2020-04-28 14:00:00 12.3 18 Noroeste 32 Oeste 0 -- -- 60
2020-04-28 13:00:00 11.3 14 Noroeste 35 Oeste 0 -- -- 65
2020-04-28 12:00:00 11.2 19 Oeste 30 Oeste 0.2 -- -- 73
2020-04-28 11:00:00 8.6 19 Oeste 32 Oeste 0.4 -- -- 82
2020-04-28 10:00:00 9 13 Oeste 22 Oeste 0 -- -- 81
2020-04-28 09:00:00 7.6 0 Calma 5 Noroeste 0 -- -- 90
2020-04-28 08:00:00 6.7 3 Sudeste 13 Oeste 0 -- -- 93
2020-04-28 07:00:00 6.2 5 Oeste 15 Oeste 0 -- -- 92
2020-04-28 06:00:00 5.5 10 Oeste 21 Oeste 0 -- -- 92
2020-04-28 05:00:00 5.1 10 Oeste 17 Oeste 0 -- -- 92
2020-04-28 04:00:00 5.5 9 Norte 23 Noroeste 0 -- -- 91
2020-04-28 03:00:00 6 12 Oeste 20 Oeste 0 -- -- 91
2020-04-28 02:00:00 6.6 14 Oeste 22 Oeste 0 -- -- 90
2020-04-28 01:00:00 6.7 12 Oeste 23 Oeste 0 -- -- 90
2020-04-28 00:00:00 7.4 12 Oeste 40 Oeste 0 -- -- 85